createdAt,value
2022-11-16T00:01:30.673Z,89.81
2022-11-16T00:04:52.170Z,89.34
2022-11-16T00:08:13.674Z,89.08
2022-11-16T00:11:38.179Z,89.48
2022-11-16T00:15:02.029Z,89.21
2022-11-16T00:18:24.060Z,89.32
2022-11-16T00:21:46.012Z,90.04
2022-11-16T00:25:07.958Z,89.87
2022-11-16T00:28:29.734Z,89.90
2022-11-16T00:31:52.419Z,90.07
2022-11-16T00:35:18.769Z,90.21
2022-11-16T00:38:41.209Z,89.46
2022-11-16T00:42:02.724Z,89.74
2022-11-16T00:45:24.233Z,89.99
2022-11-16T00:48:48.007Z,90.33
2022-11-16T00:52:12.104Z,89.99
2022-11-16T00:55:34.731Z,89.89
2022-11-16T00:58:56.400Z,89.94
2022-11-16T01:02:23.007Z,89.75
2022-11-16T01:05:46.740Z,90.02
2022-11-16T01:09:08.255Z,90.35
2022-11-16T01:12:32.053Z,90.27
2022-11-16T01:15:55.832Z,90.06
2022-11-16T01:19:17.446Z,89.83
2022-11-16T01:22:40.499Z,90.36
2022-11-16T01:26:01.997Z,90.40
2022-11-16T01:29:30.211Z,90.56
2022-11-16T01:32:53.938Z,90.64
2022-11-16T01:36:15.930Z,90.28
2022-11-16T01:39:39.677Z,90.75
2022-11-16T01:43:03.456Z,90.23
2022-11-16T01:46:25.952Z,90.72
2022-11-16T01:49:52.066Z,90.55
2022-11-16T01:53:13.820Z,90.50
2022-11-16T01:56:42.715Z,90.02
2022-11-16T02:00:07.005Z,90.25
2022-11-16T02:03:28.649Z,90.14
2022-11-16T02:07:28.540Z,90.36
2022-11-16T02:10:59.203Z,90.38
2022-11-16T02:14:38.137Z,90.75
2022-11-16T02:18:21.115Z,90.69
2022-11-16T02:21:58.617Z,90.68
2022-11-16T02:25:34.990Z,90.55
2022-11-16T02:29:38.704Z,90.60
2022-11-16T02:33:16.860Z,90.58
2022-11-16T02:36:41.610Z,90.91
2022-11-16T02:40:07.897Z,90.58
2022-11-16T02:43:38.565Z,90.69
2022-11-16T02:47:05.098Z,90.59
2022-11-16T02:50:30.009Z,90.17
2022-11-16T02:54:03.066Z,90.42
2022-11-16T02:57:33.610Z,90.48
2022-11-16T03:01:44.886Z,90.40
2022-11-16T03:05:13.299Z,90.46
2022-11-16T03:08:44.724Z,89.86
2022-11-16T03:12:09.982Z,90.15
2022-11-16T03:15:31.538Z,89.83
2022-11-16T03:19:00.395Z,89.67
2022-11-16T03:22:36.651Z,89.77
2022-11-16T03:26:06.984Z,89.49
2022-11-16T03:30:14.761Z,90.41
2022-11-16T03:33:47.013Z,90.36
2022-11-16T03:37:12.184Z,90.14
2022-11-16T03:40:40.219Z,90.94
2022-11-16T03:44:02.264Z,91.21
2022-11-16T03:47:26.524Z,90.81
2022-11-16T03:50:48.430Z,90.83
2022-11-16T03:54:09.918Z,90.97
2022-11-16T03:57:31.543Z,90.82
2022-11-16T04:00:55.787Z,90.54
2022-11-16T04:04:38.507Z,90.79
2022-11-16T04:08:18.532Z,90.32
2022-11-16T04:11:58.437Z,90.53
2022-11-16T04:15:38.409Z,90.32
2022-11-16T04:19:18.255Z,90.55
2022-11-16T04:23:06.758Z,90.18
2022-11-16T04:26:47.275Z,90.48
2022-11-16T04:30:09.413Z,90.68
2022-11-16T04:33:52.670Z,90.65
2022-11-16T04:37:36.450Z,90.72
2022-11-16T04:41:03.070Z,90.28
2022-11-16T04:44:44.546Z,90.20
2022-11-16T04:48:09.348Z,90.10
2022-11-16T04:51:30.853Z,89.79
2022-11-16T04:54:52.404Z,90.08
2022-11-16T04:58:16.378Z,90.16
2022-11-16T05:01:56.612Z,90.16
2022-11-16T05:05:18.227Z,90.11
2022-11-16T05:08:39.890Z,90.36
2022-11-16T05:12:06.723Z,90.54
2022-11-16T05:15:30.868Z,90.50
2022-11-16T05:19:10.942Z,89.96
2022-11-16T05:22:35.528Z,90.51
2022-11-16T05:25:57.069Z,90.47
2022-11-16T05:29:20.922Z,90.82
2022-11-16T05:32:44.673Z,90.67
2022-11-16T05:36:09.166Z,90.51
2022-11-16T05:39:35.199Z,90.65
2022-11-16T05:42:59.236Z,90.53
2022-11-16T05:46:23.307Z,90.27
2022-11-16T05:49:44.888Z,91.00
2022-11-16T05:53:06.389Z,90.93
2022-11-16T05:56:28.042Z,91.16
2022-11-16T05:59:51.819Z,90.16
2022-11-16T06:03:13.535Z,90.21
2022-11-16T06:06:35.495Z,90.68
2022-11-16T06:09:57.157Z,90.66
2022-11-16T06:13:24.657Z,90.48
2022-11-16T06:16:46.236Z,91.09
2022-11-16T06:20:08.296Z,90.74
2022-11-16T06:23:32.533Z,90.67
2022-11-16T06:26:54.008Z,90.49
2022-11-16T06:30:16.002Z,90.53
2022-11-16T06:33:37.542Z,90.67
2022-11-16T06:37:01.715Z,90.69
2022-11-16T06:40:25.456Z,90.47
2022-11-16T06:43:47.005Z,90.53
2022-11-16T06:47:10.774Z,90.17
2022-11-16T06:50:32.522Z,90.51
2022-11-16T06:53:54.034Z,90.71
2022-11-16T06:57:18.402Z,90.42
2022-11-16T07:00:42.253Z,90.86
2022-11-16T07:04:03.831Z,90.81
2022-11-16T07:07:25.398Z,90.97
2022-11-16T07:10:47.224Z,90.43
2022-11-16T07:14:08.817Z,90.64
2022-11-16T07:17:51.364Z,91.00
2022-11-16T07:21:15.799Z,90.46
2022-11-16T07:24:39.813Z,90.92
2022-11-16T07:28:04.760Z,90.97
2022-11-16T07:31:26.614Z,90.55
2022-11-16T07:34:50.620Z,90.85
2022-11-16T07:38:19.449Z,90.60
2022-11-16T07:41:44.373Z,90.49
2022-11-16T07:45:07.272Z,90.96
2022-11-16T07:48:32.764Z,90.96
2022-11-16T07:51:56.950Z,91.50
2022-11-16T07:55:31.435Z,91.25
2022-11-16T07:58:53.022Z,91.18
2022-11-16T08:02:14.585Z,90.90
2022-11-16T08:05:36.170Z,90.97
2022-11-16T08:09:00.837Z,90.59
2022-11-16T08:12:25.065Z,91.08
2022-11-16T08:15:46.617Z,90.97
2022-11-16T08:19:11.058Z,90.73
2022-11-16T08:22:32.567Z,90.98
2022-11-16T08:26:02.905Z,90.67
2022-11-16T08:29:25.603Z,90.01
2022-11-16T08:32:49.524Z,90.40
2022-11-16T08:36:17.385Z,90.59
2022-11-16T08:39:45.218Z,90.42
2022-11-16T08:43:11.051Z,89.99
2022-11-16T08:46:32.578Z,90.01
2022-11-16T08:49:54.077Z,90.48
2022-11-16T08:53:15.662Z,90.33
2022-11-16T08:56:37.291Z,89.76
2022-11-16T08:59:58.858Z,90.49
2022-11-16T09:03:20.354Z,90.60
2022-11-16T09:06:44.423Z,90.56
2022-11-16T09:10:07.222Z,90.37
2022-11-16T09:13:28.883Z,90.56
2022-11-16T09:16:50.492Z,90.13
2022-11-16T09:20:12.080Z,90.38
2022-11-16T09:23:33.685Z,90.53
2022-11-16T09:26:57.554Z,89.86
2022-11-16T09:30:19.195Z,90.30
2022-11-16T09:33:40.837Z,90.25
2022-11-16T09:37:02.595Z,89.32
2022-11-16T09:40:29.687Z,89.38
2022-11-16T09:44:23.687Z,90.07
2022-11-16T09:47:54.397Z,90.13
2022-11-16T09:51:18.401Z,90.45
2022-11-16T09:54:44.206Z,89.91
2022-11-16T09:58:13.018Z,89.86
2022-11-16T10:01:37.518Z,90.48
2022-11-16T10:05:25.936Z,90.33
2022-11-16T10:08:53.623Z,90.39
2022-11-16T10:12:30.075Z,90.26
2022-11-16T10:16:17.604Z,89.09
2022-11-16T10:19:54.357Z,89.92
2022-11-16T10:23:37.758Z,90.24
2022-11-16T10:26:59.518Z,90.33
2022-11-16T10:30:23.983Z,89.85
2022-11-16T10:33:48.968Z,90.20
2022-11-16T10:37:13.176Z,89.40
2022-11-16T10:40:39.820Z,89.35
2022-11-16T10:44:02.202Z,89.42
2022-11-16T10:47:38.504Z,89.28
2022-11-16T10:51:01.467Z,90.04
2022-11-16T10:54:22.983Z,89.91
2022-11-16T10:58:13.668Z,89.63
2022-11-16T11:01:49.986Z,89.65
2022-11-16T11:05:16.417Z,89.51
2022-11-16T11:08:37.919Z,89.70
2022-11-16T11:12:36.060Z,89.56
2022-11-16T11:16:15.721Z,90.06
2022-11-16T11:19:37.393Z,89.77
2022-11-16T11:23:00.485Z,90.18
2022-11-16T11:26:36.452Z,90.17
2022-11-16T11:30:00.375Z,89.75
2022-11-16T11:33:23.827Z,89.86
2022-11-16T11:37:13.373Z,89.87
2022-11-16T11:40:37.271Z,89.74
2022-11-16T11:44:08.724Z,89.56
2022-11-16T11:47:57.369Z,89.62
2022-11-16T11:51:36.819Z,89.83
2022-11-16T11:55:02.652Z,89.45
2022-11-16T11:58:32.278Z,89.50
2022-11-16T12:02:31.278Z,89.73
2022-11-16T12:06:01.541Z,89.86
2022-11-16T12:09:23.040Z,89.74
2022-11-16T12:13:02.560Z,89.75
2022-11-16T12:16:33.742Z,89.46
2022-11-16T12:20:20.641Z,90.21
2022-11-16T12:24:12.850Z,90.21
2022-11-16T12:28:06.318Z,90.43
2022-11-16T12:32:02.234Z,90.50
2022-11-16T12:36:04.840Z,90.42
2022-11-16T12:39:35.783Z,90.53
2022-11-16T12:43:33.481Z,90.51
2022-11-16T12:47:28.932Z,90.71
2022-11-16T12:51:06.017Z,90.88
2022-11-16T12:55:03.920Z,90.88
2022-11-16T12:58:33.221Z,90.41
2022-11-16T13:02:25.267Z,90.53
2022-11-16T13:05:58.216Z,90.91
2022-11-16T13:09:32.765Z,91.04
2022-11-16T13:13:29.772Z,90.95
2022-11-16T13:16:44.765Z,90.93
2022-11-16T13:20:40.737Z,90.88
2022-11-16T13:24:08.538Z,90.80
2022-11-16T13:27:36.111Z,90.94
2022-11-16T13:31:04.468Z,90.88
2022-11-16T13:34:32.703Z,91.00
2022-11-16T13:37:54.288Z,90.84
2022-11-16T13:41:40.543Z,90.75
2022-11-16T13:45:21.780Z,91.33
2022-11-16T13:48:48.043Z,90.79
2022-11-16T13:52:55.370Z,91.03
2022-11-16T13:55:59.014Z,90.80
2022-11-16T13:59:26.753Z,91.14
2022-11-16T14:02:48.380Z,90.91
2022-11-16T14:06:13.025Z,90.99
2022-11-16T14:09:48.970Z,90.81
2022-11-16T14:13:38.396Z,90.85
2022-11-16T14:16:59.938Z,90.94
2022-11-16T14:20:38.924Z,90.44
2022-11-16T14:24:06.477Z,90.83
2022-11-16T14:27:48.849Z,91.37
2022-11-16T14:31:19.333Z,91.62
2022-11-16T14:34:47.453Z,91.34
2022-11-16T14:38:26.484Z,91.61
2022-11-16T14:41:48.042Z,91.57
2022-11-16T14:45:26.928Z,91.48
2022-11-16T14:48:49.253Z,91.20
2022-11-16T14:52:12.261Z,91.14
2022-11-16T14:55:44.980Z,91.32
2022-11-16T14:59:06.553Z,91.49
2022-11-16T15:02:28.113Z,91.30
2022-11-16T15:05:49.851Z,91.47
2022-11-16T15:09:27.102Z,91.57
2022-11-16T15:12:52.910Z,91.73
2022-11-16T15:16:19.716Z,91.23
2022-11-16T15:19:43.793Z,91.32
2022-11-16T15:23:16.688Z,91.27
2022-11-16T15:26:38.526Z,91.13
2022-11-16T15:30:24.819Z,90.85
2022-11-16T15:33:50.507Z,91.28
2022-11-16T15:37:15.215Z,90.91
2022-11-16T15:40:39.571Z,91.20
2022-11-16T15:44:14.030Z,90.91
2022-11-16T15:47:37.289Z,91.10
2022-11-16T15:51:05.248Z,91.13
2022-11-16T15:54:54.804Z,90.75
2022-11-16T15:58:28.188Z,90.88
2022-11-16T16:01:50.048Z,91.16
2022-11-16T16:05:39.199Z,91.35
2022-11-16T16:09:08.051Z,91.18
2022-11-16T16:12:29.653Z,91.10
2022-11-16T16:16:31.385Z,90.74
2022-11-16T16:20:04.038Z,91.02
2022-11-16T16:23:25.798Z,90.52
2022-11-16T16:26:49.804Z,91.20
2022-11-16T16:30:14.504Z,98.40
2022-11-16T16:33:36.935Z,97.58
2022-11-16T16:37:05.802Z,94.36
2022-11-16T16:40:29.912Z,92.69
2022-11-16T16:43:53.784Z,90.69
2022-11-16T16:47:16.906Z,86.86
2022-11-16T16:50:41.202Z,87.64
2022-11-16T16:54:05.015Z,87.19
2022-11-16T16:57:26.530Z,87.77
2022-11-16T17:00:48.343Z,87.22
2022-11-16T17:04:09.874Z,88.54
2022-11-16T17:07:31.487Z,87.89
2022-11-16T17:10:53.047Z,87.82
2022-11-16T17:14:15.120Z,88.55
2022-11-16T17:17:41.300Z,88.56
2022-11-16T17:21:10.190Z,88.26
2022-11-16T17:24:31.719Z,87.88
2022-11-16T17:27:58.237Z,88.20
2022-11-16T17:31:24.528Z,87.43
2022-11-16T17:34:47.375Z,88.40
2022-11-16T17:38:13.101Z,88.54
2022-11-16T17:41:34.764Z,88.01
2022-11-16T17:44:56.301Z,88.24
2022-11-16T17:48:21.368Z,83.85
2022-11-16T17:51:42.881Z,84.95
2022-11-16T17:55:04.752Z,85.76
2022-11-16T17:58:31.774Z,86.75
2022-11-16T18:01:53.358Z,87.36
2022-11-16T18:05:14.882Z,88.38
2022-11-16T18:08:36.847Z,88.96
2022-11-16T18:12:00.864Z,89.33
2022-11-16T18:15:28.492Z,94.28
2022-11-16T18:18:59.066Z,92.84
2022-11-16T18:22:22.935Z,90.85
2022-11-16T18:25:44.483Z,90.26
2022-11-16T18:29:07.072Z,89.29
2022-11-16T18:32:29.982Z,88.66
2022-11-16T18:35:52.101Z,88.90
2022-11-16T18:39:13.610Z,88.66
2022-11-16T18:42:35.534Z,84.15
2022-11-16T18:45:59.822Z,85.01
2022-11-16T18:49:21.324Z,85.80
2022-11-16T18:52:45.620Z,86.63
2022-11-16T18:56:07.842Z,87.35
2022-11-16T18:59:34.547Z,88.26
2022-11-16T19:02:56.122Z,88.66
2022-11-16T19:06:18.402Z,89.12
2022-11-16T19:09:40.045Z,89.23
2022-11-16T19:13:01.552Z,89.45
2022-11-16T19:16:24.025Z,94.20
2022-11-16T19:19:45.546Z,92.98
2022-11-16T19:23:07.075Z,91.32
2022-11-16T19:26:28.615Z,91.00
2022-11-16T19:29:50.142Z,89.72
2022-11-16T19:33:17.008Z,89.16
2022-11-16T19:36:38.733Z,87.54
2022-11-16T19:40:00.272Z,88.50
2022-11-16T19:43:21.910Z,85.70
2022-11-16T19:46:46.433Z,82.05
2022-11-16T19:50:10.052Z,83.84
2022-11-16T19:53:32.676Z,85.39
2022-11-16T19:56:55.343Z,86.64
2022-11-16T20:00:17.293Z,87.61
2022-11-16T20:03:40.401Z,88.27
2022-11-16T20:07:01.970Z,88.82
2022-11-16T20:10:23.534Z,89.06
2022-11-16T20:13:45.030Z,88.94
2022-11-16T20:17:06.580Z,89.34
2022-11-16T20:20:28.142Z,89.58
2022-11-16T20:23:51.734Z,89.34
2022-11-16T20:27:15.320Z,89.32
2022-11-16T20:30:39.122Z,88.61
2022-11-16T20:34:04.037Z,89.24
2022-11-16T20:37:25.630Z,89.25
2022-11-16T20:40:49.440Z,89.66
2022-11-16T20:44:16.518Z,94.24
2022-11-16T20:47:40.894Z,93.61
2022-11-16T20:51:02.785Z,91.55
2022-11-16T20:54:24.456Z,90.87
2022-11-16T20:57:48.203Z,88.98
2022-11-16T21:01:19.223Z,88.94
2022-11-16T21:04:43.054Z,85.17
2022-11-16T21:08:04.695Z,84.64
2022-11-16T21:11:31.124Z,85.59
2022-11-16T21:14:52.885Z,86.47
2022-11-16T21:18:16.478Z,86.85
2022-11-16T21:21:38.639Z,87.69
2022-11-16T21:25:02.669Z,87.88
2022-11-16T21:28:25.669Z,88.51
2022-11-16T21:31:47.334Z,88.94
2022-11-16T21:35:09.090Z,89.22
2022-11-16T21:38:31.716Z,89.33
2022-11-16T21:41:53.451Z,89.48
2022-11-16T21:45:15.241Z,89.36
2022-11-16T21:48:39.937Z,89.54
2022-11-16T21:52:04.756Z,89.44
2022-11-16T21:55:26.735Z,89.71
2022-11-16T21:58:54.120Z,94.13
2022-11-16T22:02:20.387Z,89.29
2022-11-16T22:06:07.297Z,87.57
2022-11-16T22:09:34.091Z,87.72
2022-11-16T22:12:55.631Z,87.45
2022-11-16T22:16:19.719Z,87.84
2022-11-16T22:19:43.506Z,88.60
2022-11-16T22:23:05.198Z,88.95
2022-11-16T22:26:31.355Z,89.27
2022-11-16T22:29:52.898Z,89.31
2022-11-16T22:33:14.417Z,88.64
2022-11-16T22:36:35.906Z,89.26
2022-11-16T22:39:59.664Z,89.40
2022-11-16T22:43:23.486Z,89.41
2022-11-16T22:46:45.035Z,89.28
2022-11-16T22:50:06.726Z,89.68
2022-11-16T22:53:30.612Z,89.51
2022-11-16T22:56:52.122Z,89.19
2022-11-16T23:00:14.175Z,89.54
2022-11-16T23:03:36.798Z,89.78
2022-11-16T23:06:58.800Z,89.55
2022-11-16T23:10:25.171Z,89.29
2022-11-16T23:14:08.802Z,88.91
2022-11-16T23:17:30.313Z,89.12
2022-11-16T23:21:10.534Z,89.73
2022-11-16T23:24:52.908Z,90.10
2022-11-16T23:28:16.333Z,89.66
2022-11-16T23:31:38.682Z,89.22
2022-11-16T23:35:02.827Z,89.11
2022-11-16T23:38:26.563Z,89.25
2022-11-16T23:42:06.816Z,88.44
2022-11-16T23:45:28.332Z,89.00
2022-11-16T23:48:50.018Z,88.92
2022-11-16T23:52:12.004Z,89.59
2022-11-16T23:55:38.287Z,89.43
2022-11-16T23:58:59.799Z,89.34
